ADDS METAR Data INFO
IDs: Format: Raw Decoded Include TAF

Data at: 0314 UTC 20 Jul 2018

METAR for:KOBE (Okeechobee Cnty Arpt, FL, US)
Text:KOBE 200255Z AUTO 00000KT 10SM SCT048 BKN080 25/24 A3001 RMK AO2
Temperature: 25.0°C ( 77°F)
Dewpoint: 24.0°C ( 75°F) [RH = 94%]
Pressure (altimeter):30.01 inches Hg (1016.3 mb)
Winds:calm
Visibility:10 or more sm (16+ km)
Ceiling:8000 feet AGL
Clouds: scattered clouds at 4800 feet AGL, broken clouds at 8000 feet AGL
QC Flag:automated observation with no human augmentation